Time;durP1;ratioP1;P1;durP2;ratioP2;P2;SDS_P1;SDS_P2;PMS_P1;PMS_P2;Temp;Humidity;BMP_temperature;BMP_pressure;BME280_temperature;BME280_humidity;BME280_pressure;Samples;Min_cycle;Max_cycle;Signal;HPM_P1;HPM_P2
2021/12/04 00:00:23;;;;;;;7.30;2.17;;;;;;;1.94;73.01;98929.16;4854132;29;20101;-92
2021/12/04 00:03:51;;;;;;;;;;;;;;;;;;;;;
2021/12/04 00:10:26;;;;;;;;;;;;;;;;;;;;;
2021/12/04 00:16:24;;;;;;;4.00;1.90;;;;;;;2.04;72.66;98914.00;4728365;30;20056;-91
2021/12/04 00:22:43;;;;;;;9.60;2.13;;;;;;;2.04;72.61;98906.25;4717553;30;20222;-90
2021/12/04 00:28:31;;;;;;;5.30;1.90;;;;;;;2.05;72.97;98910.50;4757481;30;20040;-91
2021/12/04 00:34:37;;;;;;;4.28;1.77;;;;;;;2.10;72.46;98900.72;4743618;30;20047;-90
2021/12/04 00:56:00;;;;;;;;;;;;;;;;;;;;;
2021/12/04 00:59:01;;;;;;;5.15;1.92;;;;;;;2.21;72.53;98896.72;4809332;29;20040;-90
2021/12/04 01:01:43;;;;;;;8.40;2.40;;;;;;;2.23;72.40;98897.47;4807202;29;20035;-91
2021/12/04 01:04:51;;;;;;;8.45;2.20;;;;;;;2.22;72.56;98893.22;4801684;29;20027;-91
2021/12/04 01:07:52;;;;;;;6.57;1.90;;;;;;;2.22;72.55;98899.22;4808531;29;20050;-89
2021/12/04 01:14:05;;;;;;;4.22;2.10;;;;;;;2.24;71.54;98892.22;4799497;29;20038;-91
2021/12/04 01:16:45;;;;;;;5.20;2.10;;;;;;;2.25;71.85;98883.53;4816464;29;20068;-90
2021/12/04 01:19:25;;;;;;;5.32;2.25;;;;;;;2.29;71.92;98889.38;4852972;29;20102;-88
2021/12/04 01:21:58;;;;;;;6.95;1.90;;;;;;;2.28;72.17;98893.72;4845292;29;20042;-89
2021/12/04 01:24:42;;;;;;;9.02;2.00;;;;;;;2.27;72.29;98889.47;4873278;29;20027;-92
2021/12/04 01:27:23;;;;;;;5.38;2.00;;;;;;;2.26;72.43;98886.94;4929573;29;20035;-90
2021/12/04 01:33:10;;;;;;;9.60;2.05;;;;;;;2.26;72.33;98880.03;5017170;28;20056;-90
2021/12/04 01:35:35;;;;;;;3.35;1.70;;;;;;;2.27;71.93;98866.19;5042995;28;20087;-90
2021/12/04 01:38:04;;;;;;;7.78;2.30;;;;;;;2.25;72.39;98872.34;5036492;28;20052;-92
2021/12/04 01:40:29;;;;;;;5.53;1.90;;;;;;;2.25;72.54;98865.44;5037554;28;20032;-89
2021/12/04 01:42:55;;;;;;;7.32;2.75;;;;;;;2.25;72.46;98868.00;5036100;28;20033;-89
2021/12/04 01:45:24;;;;;;;7.10;2.50;;;;;;;2.26;72.47;98861.91;5035153;28;20381;-91
2021/12/04 01:47:56;;;;;;;4.93;2.20;;;;;;;2.26;72.72;98864.50;5032676;28;20010;-90
2021/12/04 01:50:22;;;;;;;6.65;2.63;;;;;;;2.26;72.45;98859.31;5031797;28;20043;-91
2021/12/04 01:52:55;;;;;;;5.40;2.13;;;;;;;2.29;72.50;98859.16;5033310;28;20037;-91
2021/12/04 01:55:40;;;;;;;7.03;2.72;;;;;;;2.29;72.38;98856.56;5031022;28;20034;-91
2021/12/04 01:58:06;;;;;;;3.83;2.05;;;;;;;2.29;72.44;98851.41;5028398;28;20520;-91
2021/12/04 02:00:39;;;;;;;7.40;2.15;;;;;;;2.29;73.01;98835.06;5003027;28;20450;-89
2021/12/04 02:03:12;;;;;;;3.53;1.92;;;;;;;2.28;72.96;98834.22;5014074;28;20022;-91
2021/12/04 02:08:30;;;;;;;4.35;2.08;;;;;;;2.30;73.13;98836.72;5035389;28;20465;-90
2021/12/04 02:11:02;;;;;;;6.88;1.90;;;;;;;2.29;73.22;98833.31;5032977;28;20037;-90
2021/12/04 02:14:00;;;;;;;7.20;2.33;;;;;;;2.31;73.03;98833.25;5043745;28;20139;-89
2021/12/04 02:16:31;;;;;;;6.40;2.03;;;;;;;2.32;73.23;98829.72;5025139;28;20033;-89
2021/12/04 02:19:01;;;;;;;3.67;2.05;;;;;;;2.31;73.94;98823.72;5029840;28;20409;-90
2021/12/04 02:21:33;;;;;;;6.20;2.45;;;;;;;2.31;74.34;98825.47;5031230;28;20123;-91
2021/12/04 02:24:01;;;;;;;5.97;2.10;;;;;;;2.26;74.97;98817.13;5033420;28;20176;-91
2021/12/04 02:26:29;;;;;;;6.37;2.10;;;;;;;2.25;75.70;98824.06;5030496;28;20038;-91
2021/12/04 02:29:04;;;;;;;6.95;2.88;;;;;;;2.23;75.19;98819.91;5030905;28;20044;-91
2021/12/04 02:31:55;;;;;;;;;;;;;;;;;;;;;
2021/12/04 02:34:38;;;;;;;3.53;1.77;;;;;;;2.25;74.82;98811.13;5034567;28;20116;-92
2021/12/04 02:37:13;;;;;;;5.28;1.77;;;;;;;2.25;74.79;98812.88;5049747;28;20061;-89
2021/12/04 02:40:07;;;;;;;;;;;;;;;;;;;;;
2021/12/04 02:42:46;;;;;;;8.27;1.85;;;;;;;2.27;74.54;98803.31;5046159;28;20090;-91
2021/12/04 02:45:15;;;;;;;6.18;2.10;;;;;;;2.27;75.03;98805.88;5023129;28;20099;-92
2021/12/04 02:47:48;;;;;;;6.55;2.00;;;;;;;2.23;75.27;98788.88;5041446;28;20030;-91
2021/12/04 02:50:17;;;;;;;4.47;1.65;;;;;;;2.24;75.49;98786.19;5043945;28;20050;-92
2021/12/04 02:52:47;;;;;;;5.57;2.08;;;;;;;2.26;75.02;98783.50;5025972;28;20091;-91
2021/12/04 02:55:15;;;;;;;4.95;2.28;;;;;;;2.28;75.22;98790.28;5018860;28;20040;-92
2021/12/04 02:57:49;;;;;;;4.22;1.88;;;;;;;2.28;74.91;98784.28;5036441;28;20053;-90
2021/12/04 03:00:23;;;;;;;5.22;2.03;;;;;;;2.30;75.13;98766.91;5037072;28;20104;-90
2021/12/04 03:02:59;;;;;;;6.50;1.73;;;;;;;2.30;74.75;98766.91;5053167;28;20038;-90
2021/12/04 03:05:30;;;;;;;6.35;2.08;;;;;;;2.28;74.89;98756.66;5035674;28;20095;-91
2021/12/04 03:07:58;;;;;;;10.20;1.83;;;;;;;2.26;74.43;98749.91;5028114;28;20037;-91
2021/12/04 03:10:35;;;;;;;8.60;2.15;;;;;;;2.28;74.24;98750.66;5028135;28;20091;-92
2021/12/04 03:13:12;;;;;;;4.18;2.22;;;;;;;2.28;74.38;98745.47;5033924;28;20040;-91
2021/12/04 03:16:06;;;;;;;4.07;1.88;;;;;;;2.29;74.55;98740.22;5035562;28;20030;-91
2021/12/04 03:18:34;;;;;;;7.47;2.08;;;;;;;2.29;74.58;98739.38;5035931;28;20056;-90
2021/12/04 03:21:06;;;;;;;4.18;2.20;;;;;;;2.30;74.13;98739.31;5035712;28;20025;-90
2021/12/04 03:23:55;;;;;;;4.25;1.95;;;;;;;2.30;73.86;98734.13;5018146;28;20029;-90
2021/12/04 03:26:33;;;;;;;4.80;2.08;;;;;;;2.30;74.64;98722.94;5034039;28;20041;-91
2021/12/04 03:29:03;;;;;;;6.35;2.30;;;;;;;2.31;74.76;98729.78;5044255;28;20049;-90
2021/12/04 03:42:40;;;;;;;5.22;2.75;;;;;;;2.35;74.97;98726.09;5048300;28;20096;-89
2021/12/04 03:45:09;;;;;;;6.93;2.67;;;;;;;2.32;75.56;98726.28;5067709;28;20056;-88
2021/12/04 03:47:49;;;;;;;6.18;2.20;;;;;;;2.32;76.34;98721.09;5051737;28;20045;-86
2021/12/04 03:50:16;;;;;;;4.78;2.22;;;;;;;2.26;77.65;98727.44;5047721;28;20101;-87
2021/12/04 03:52:41;;;;;;;8.90;2.92;;;;;;;2.17;78.74;98726.25;5054598;28;20109;-88
2021/12/04 03:55:12;;;;;;;6.43;2.75;;;;;;;2.05;80.54;98723.53;5052622;28;20037;-88
2021/12/04 03:57:45;;;;;;;5.57;2.67;;;;;;;2.01;80.95;98722.88;5052253;28;20033;-85
2021/12/04 04:00:18;;;;;;;8.10;3.20;;;;;;;1.99;81.90;98732.47;5050761;28;20025;-89
2021/12/04 04:02:44;;;;;;;9.27;3.47;;;;;;;1.93;82.59;98725.09;5023146;28;20120;-90
2021/12/04 04:05:12;;;;;;;6.00;3.10;;;;;;;1.91;83.14;98719.16;5031578;28;20128;-89
2021/12/04 04:07:43;;;;;;;9.57;3.70;;;;;;;1.88;83.43;98721.91;5048971;28;20103;-91
2021/12/04 04:10:09;;;;;;;7.60;3.72;;;;;;;1.87;84.06;98715.09;5026857;28;20095;-90
2021/12/04 04:12:38;;;;;;;9.23;4.25;;;;;;;1.81;84.14;98715.41;5013555;28;20042;-87
2021/12/04 04:15:04;;;;;;;7.87;3.87;;;;;;;1.72;85.08;98715.94;5052287;28;20052;-89
2021/12/04 04:18:22;;;;;;;6.78;3.63;;;;;;;1.66;85.97;98712.78;5052627;28;20049;-91
2021/12/04 04:21:00;;;;;;;6.30;3.38;;;;;;;1.65;85.99;98715.47;5027415;28;20132;-90
2021/12/04 04:23:37;;;;;;;8.02;4.07;;;;;;;1.60;86.91;98709.72;5056457;28;20052;-90
2021/12/04 04:26:08;;;;;;;8.48;4.30;;;;;;;1.58;86.84;98712.38;5043748;28;20030;-88
2021/12/04 04:28:43;;;;;;;8.45;4.00;;;;;;;1.50;87.32;98713.72;5053595;28;20034;-91
2021/12/04 04:31:21;;;;;;;7.57;3.80;;;;;;;1.46;88.27;98715.66;5044788;28;20029;-90
2021/12/04 04:33:50;;;;;;;8.43;4.45;;;;;;;1.38;88.27;98703.16;5048659;28;20041;-89
2021/12/04 04:36:32;;;;;;;;;;;;;;;;;;;;;
2021/12/04 05:15:14;;;;;;;8.80;4.90;;;;;;;1.13;90.65;98667.53;4998125;28;20108;-90
2021/12/04 05:17:55;;;;;;;8.60;4.25;;;;;;;1.13;90.64;98664.09;4998541;28;20034;-90
2021/12/04 05:20:31;;;;;;;10.13;4.80;;;;;;;1.17;90.47;98666.44;5031315;28;20034;-90
2021/12/04 05:23:02;;;;;;;11.85;5.82;;;;;;;1.14;90.71;98665.78;5031744;28;20515;-89
2021/12/04 05:25:33;;;;;;;12.93;5.38;;;;;;;1.12;90.86;98670.19;5032925;28;20032;-90
2021/12/04 05:28:03;;;;;;;10.35;5.20;;;;;;;1.12;90.93;98671.03;5031345;28;20041;-91
2021/12/04 05:30:37;;;;;;;14.98;5.93;;;;;;;1.13;90.79;98666.69;5043047;28;20034;-92
2021/12/04 05:33:06;;;;;;;11.90;5.90;;;;;;;1.13;91.11;98674.44;5016061;28;20326;-90
2021/12/04 05:35:38;;;;;;;14.13;6.37;;;;;;;1.11;91.01;98665.94;5023948;28;20048;-91
2021/12/04 05:38:04;;;;;;;9.93;6.38;;;;;;;1.10;91.40;98675.41;5025532;28;20778;-90
2021/12/04 05:40:30;;;;;;;12.68;6.70;;;;;;;1.06;91.15;98673.09;5018943;28;20041;-91
2021/12/04 05:43:02;;;;;;;10.13;6.50;;;;;;;1.05;90.84;98668.88;5003494;28;20110;-91
2021/12/04 05:45:38;;;;;;;12.50;7.28;;;;;;;1.01;91.14;98662.22;5011221;28;20365;-92
2021/12/04 05:48:17;;;;;;;11.45;6.60;;;;;;;1.03;91.03;98661.19;5032075;28;20379;-90
2021/12/04 05:53:40;;;;;;;15.52;8.27;;;;;;;1.06;91.13;98660.19;5032554;28;20171;-90
2021/12/04 05:56:06;;;;;;;14.88;7.78;;;;;;;1.00;91.28;98663.09;5031982;28;20038;-91
2021/12/04 05:58:33;;;;;;;12.52;8.23;;;;;;;0.99;91.89;98661.44;5040359;28;20048;-91
2021/12/04 06:01:19;;;;;;;15.70;9.23;;;;;;;0.96;91.83;98655.56;5034427;28;20039;-91
2021/12/04 06:03:57;;;;;;;;;;;;;;;;;;;;;
2021/12/04 06:06:23;;;;;;;15.40;9.23;;;;;;;0.98;91.93;98660.63;5032202;28;20029;-91
2021/12/04 06:08:49;;;;;;;14.68;8.98;;;;;;;0.99;92.04;98670.00;5048921;28;20052;-91
2021/12/04 06:11:17;;;;;;;14.98;8.65;;;;;;;1.01;91.86;98675.09;5024130;28;20065;-90
2021/12/04 06:13:43;;;;;;;15.25;8.73;;;;;;;1.04;91.79;98667.19;5025595;28;20451;-89
2021/12/04 06:16:09;;;;;;;17.23;9.88;;;;;;;1.05;92.12;98672.28;5034994;28;20080;-89
2021/12/04 06:18:34;;;;;;;17.27;9.30;;;;;;;1.08;91.88;98671.28;5026773;28;20166;-90
2021/12/04 06:23:45;;;;;;;14.60;9.45;;;;;;;1.09;91.56;98658.28;5034973;28;20113;-88
2021/12/04 06:26:17;;;;;;;17.05;9.23;;;;;;;1.08;91.41;98642.91;5026896;28;20087;-91
2021/12/04 06:28:48;;;;;;;16.80;9.02;;;;;;;1.08;91.50;98645.47;5035770;28;20045;-92
2021/12/04 06:31:14;;;;;;;16.50;9.15;;;;;;;1.10;91.68;98635.88;5034748;28;20033;-91
2021/12/04 06:33:43;;;;;;;15.48;9.65;;;;;;;1.10;91.94;98635.88;5028132;28;20017;-90
2021/12/04 06:36:09;;;;;;;19.25;10.00;;;;;;;1.08;92.04;98632.56;5042651;28;20101;-90
2021/12/04 06:38:35;;;;;;;15.93;9.38;;;;;;;1.04;91.73;98642.22;5038751;28;20388;-90
2021/12/04 06:41:08;;;;;;;13.52;8.82;;;;;;;1.09;92.15;98645.38;5022790;28;20036;-91
2021/12/04 06:43:36;;;;;;;15.70;9.20;;;;;;;1.13;91.91;98646.88;5022761;28;20033;-92
2021/12/04 06:46:06;;;;;;;17.23;9.23;;;;;;;1.14;91.65;98639.97;5036293;28;20129;-89
2021/12/04 06:51:37;;;;;;;15.88;9.00;;;;;;;1.15;91.38;98645.06;5037063;28;20428;-90
2021/12/04 06:54:10;;;;;;;15.02;8.90;;;;;;;1.17;91.70;98657.88;5034619;28;20562;-88
2021/12/04 06:56:39;;;;;;;17.08;8.65;;;;;;;1.15;91.73;98650.22;5041991;28;20462;-91
2021/12/04 06:59:13;;;;;;;17.55;9.30;;;;;;;1.15;91.31;98655.38;5045922;28;20454;-89
2021/12/04 07:01:41;;;;;;;18.40;9.00;;;;;;;1.18;91.58;98657.75;5040713;28;20029;-89
2021/12/04 07:04:10;;;;;;;13.60;8.07;;;;;;;1.19;91.09;98649.13;5024801;28;20037;-90
2021/12/04 07:06:36;;;;;;;14.48;8.80;;;;;;;1.18;91.56;98644.03;5035924;28;20100;-88
2021/12/04 07:09:03;;;;;;;17.23;9.73;;;;;;;1.20;91.13;98635.28;5041016;28;20118;-90
2021/12/04 07:11:31;;;;;;;17.17;9.57;;;;;;;1.19;91.44;98635.41;5048614;28;20033;-91
2021/12/04 07:13:57;;;;;;;17.17;9.55;;;;;;;1.18;91.30;98639.69;5050856;28;20099;-89
2021/12/04 07:16:29;;;;;;;16.88;9.25;;;;;;;1.23;91.57;98630.91;5036031;28;20112;-90
2021/12/04 07:18:54;;;;;;;14.82;9.23;;;;;;;1.27;91.59;98630.63;5036954;28;20029;-91
2021/12/04 07:21:25;;;;;;;23.42;11.10;;;;;;;1.66;95.84;98622.34;5050162;28;20025;-88
2021/12/04 07:23:51;;;;;;;18.10;11.20;;;;;;;1.86;93.79;98626.41;5067372;28;20092;-89
2021/12/04 07:26:18;;;;;;;19.30;10.25;;;;;;;1.87;91.53;98622.06;5047316;28;20041;-89
2021/12/04 07:28:47;;;;;;;18.63;9.50;;;;;;;1.89;89.72;98618.47;5044034;28;20056;-91
2021/12/04 07:31:12;;;;;;;16.10;9.38;;;;;;;1.93;89.52;98617.38;5067871;28;20037;-84
2021/12/04 07:33:40;;;;;;;15.18;8.13;;;;;;;1.88;87.87;98613.38;5050813;28;20036;-89
2021/12/04 07:36:27;;;;;;;15.45;8.02;;;;;;;1.73;88.09;98611.69;5066066;28;20021;-88
2021/12/04 07:38:53;;;;;;;16.42;8.20;;;;;;;1.58;89.18;98608.22;5054750;28;20049;-90
2021/12/04 07:41:20;;;;;;;14.80;8.82;;;;;;;1.57;89.46;98599.66;5046334;28;20026;-88
2021/12/04 07:43:48;;;;;;;14.50;8.63;;;;;;;1.55;89.63;98603.22;5054837;28;20047;-89
2021/12/04 07:46:25;;;;;;;12.93;7.97;;;;;;;1.54;89.33;98597.25;5052655;28;20033;-88
2021/12/04 07:48:53;;;;;;;15.80;8.23;;;;;;;1.60;89.36;98599.47;5056294;28;20059;-90
2021/12/04 07:51:24;;;;;;;18.20;8.93;;;;;;;1.59;89.22;98589.22;5072559;28;20048;-89
2021/12/04 07:53:53;;;;;;;14.65;8.55;;;;;;;1.60;89.76;98586.56;5071688;28;20152;-89
2021/12/04 07:56:22;;;;;;;18.92;9.18;;;;;;;1.62;89.59;98584.72;5044947;28;20037;-90
2021/12/04 07:58:52;;;;;;;18.08;9.27;;;;;;;1.58;89.73;98583.22;5030610;28;20112;-91
2021/12/04 08:01:18;;;;;;;19.80;9.70;;;;;;;1.63;89.66;98578.66;5034909;28;20044;-89
2021/12/04 08:04:13;;;;;;;15.05;8.85;;;;;;;1.63;90.06;98591.56;5042569;28;20132;-89
2021/12/04 08:06:41;;;;;;;18.45;9.32;;;;;;;1.67;89.89;98581.88;5031602;28;20101;-87
2021/12/04 08:09:26;;;;;;;17.80;8.57;;;;;;;1.71;89.38;98585.94;5063800;28;20014;-89
2021/12/04 08:11:54;;;;;;;14.43;8.27;;;;;;;1.74;89.29;98590.09;5034697;28;20093;-90
2021/12/04 08:14:39;;;;;;;15.40;8.80;;;;;;;1.66;89.62;98588.78;5053705;28;20045;-90
2021/12/04 08:17:11;;;;;;;13.20;8.52;;;;;;;1.70;89.17;98592.84;5033636;28;20041;-90
2021/12/04 08:19:40;;;;;;;15.32;8.02;;;;;;;1.78;88.97;98595.00;5061315;28;20056;-91
2021/12/04 08:22:23;;;;;;;;;;;;;;;;;;;;;
2021/12/04 08:24:52;;;;;;;60.33;14.10;;;;;;;1.91;88.59;98597.69;5048186;28;20071;-89
2021/12/04 08:27:19;;;;;;;18.55;9.80;;;;;;;1.91;88.38;98600.28;5047781;28;20033;-87
2021/12/04 08:29:50;;;;;;;30.38;10.48;;;;;;;1.93;87.94;98595.88;5047838;28;20044;-90
2021/12/04 08:32:20;;;;;;;14.82;8.10;;;;;;;1.95;88.26;98609.50;5043637;28;20093;-90
2021/12/04 08:34:53;;;;;;;132.98;19.85;;;;;;;1.95;88.21;98599.16;5045286;28;20033;-88
2021/12/04 08:37:24;;;;;;;17.23;9.20;;;;;;;1.99;88.10;98599.81;5046197;28;20030;-90
2021/12/04 08:39:57;;;;;;;16.17;9.98;;;;;;;2.02;87.86;98605.66;5045037;28;20450;-89
2021/12/04 08:42:24;;;;;;;15.68;9.07;;;;;;;2.04;87.85;98600.38;5026709;28;20092;-89
2021/12/04 08:44:52;;;;;;;15.70;9.32;;;;;;;2.03;87.79;98594.38;5045639;28;20021;-91
2021/12/04 08:47:39;;;;;;;14.75;9.07;;;;;;;2.10;87.66;98592.25;5044820;28;20052;-89
2021/12/04 08:50:10;;;;;;;14.60;10.20;;;;;;;2.15;87.35;98601.41;5028823;28;20092;-91
2021/12/04 08:52:46;;;;;;;17.02;8.80;;;;;;;2.14;86.11;98606.66;5031050;28;20116;-92
2021/12/04 08:55:18;;;;;;;14.15;8.57;;;;;;;2.17;86.25;98599.56;5048253;28;20037;-89
2021/12/04 08:57:51;;;;;;;14.15;8.05;;;;;;;2.17;85.97;98588.38;5040463;28;20045;-90
2021/12/04 09:00:33;;;;;;;16.80;8.98;;;;;;;2.24;85.78;98597.44;5036290;28;20040;-89
2021/12/04 09:02:59;;;;;;;14.68;8.43;;;;;;;2.28;85.67;98595.50;5037591;28;20038;-88
2021/12/04 09:05:28;;;;;;;14.07;8.25;;;;;;;2.25;85.68;98601.69;5026932;28;20033;-90
2021/12/04 09:08:09;;;;;;;11.90;7.88;;;;;;;2.29;85.92;98604.91;5017292;28;20025;-91
2021/12/04 09:10:42;;;;;;;16.73;8.68;;;;;;;2.32;85.63;98602.97;5024352;28;20122;-89
2021/12/04 09:13:08;;;;;;;12.90;8.40;;;;;;;2.36;85.62;98603.63;5026972;28;20495;-87
2021/12/04 09:15:45;;;;;;;14.63;8.00;;;;;;;2.36;85.86;98603.63;5033171;28;20066;-89
2021/12/04 09:18:24;;;;;;;15.90;8.05;;;;;;;2.37;85.16;98610.44;5026544;28;20057;-85
2021/12/04 09:21:03;;;;;;;;;;;;;;;;;;;;;
2021/12/04 09:23:41;;;;;;;14.75;8.65;;;;;;;2.37;85.26;98602.69;5037807;28;20120;-87
2021/12/04 09:26:30;;;;;;;15.02;8.07;;;;;;;2.33;84.66;98604.63;5035547;28;20465;-87
2021/12/04 09:29:10;;;;;;;;;;;;;;;2.38;84.29;98606.97;5033307;28;20040;-88
2021/12/04 09:31:49;;;;;;;10.30;7.00;;;;;;;2.38;84.41;98605.19;5033867;28;19932;-88
2021/12/04 10:18:21;;;;;;;13.00;7.53;;;;;;;2.94;81.41;98568.16;4982495;28;20070;-90
2021/12/04 10:35:28;;;;;;;20.38;9.10;;;;;;;3.10;81.00;98525.63;4983178;28;20128;-91
2021/12/04 10:38:24;;;;;;;11.77;7.00;;;;;;;3.14;81.34;98518.50;4983004;28;20122;-90
2021/12/04 10:40:59;;;;;;;11.40;6.68;;;;;;;3.21;81.53;98518.94;4965602;28;20038;-88
2021/12/04 10:43:38;;;;;;;9.80;6.55;;;;;;;3.22;80.68;98508.47;4977796;28;20545;-90
2021/12/04 10:46:21;;;;;;;11.25;6.80;;;;;;;3.28;81.21;98504.66;4960190;28;20196;-89
2021/12/04 10:52:55;;;;;;;12.48;7.15;;;;;;;3.44;79.99;98494.91;5038659;28;20036;-90
2021/12/04 11:04:47;;;;;;;10.43;6.38;;;;;;;3.72;79.45;98475.75;4996767;28;20076;-89
2021/12/04 11:42:21;;;;;;;10.27;6.05;;;;;;;4.02;77.46;98446.06;4905890;29;20174;-91
2021/12/04 11:45:34;;;;;;;9.50;5.72;;;;;;;4.08;78.07;98445.66;4859485;29;20061;-91
2021/12/04 11:48:06;;;;;;;8.02;5.10;;;;;;;4.13;77.70;98439.19;4840480;29;20084;-91
2021/12/04 11:50:49;;;;;;;8.90;4.88;;;;;;;4.15;77.56;98430.47;4839379;29;20140;-91
2021/12/04 11:53:27;;;;;;;8.40;5.47;;;;;;;4.18;76.53;98412.94;4824553;29;20487;-86
2021/12/04 11:56:02;;;;;;;8.85;6.40;;;;;;;4.21;77.32;98412.72;4827886;29;20046;-90
2021/12/04 11:59:01;;;;;;;13.40;7.65;;;;;;;4.35;78.51;98401.34;4826506;29;20073;-88
2021/12/04 12:01:41;;;;;;;;;;;;;;;4.48;76.83;98404.69;4831733;29;20089;-91
2021/12/04 12:04:10;;;;;;;9.43;5.00;;;;;;;4.55;76.62;98399.91;4885254;29;19963;-90
2021/12/04 12:06:50;;;;;;;11.18;6.15;;;;;;;4.52;76.52;98397.53;4871791;29;20044;-90
2021/12/04 12:09:29;;;;;;;9.23;5.72;;;;;;;4.61;76.64;98395.09;4866627;29;20040;-91
2021/12/04 12:12:20;;;;;;;11.63;5.60;;;;;;;4.55;75.46;98400.72;4856708;29;20096;-91
2021/12/04 12:15:03;;;;;;;9.20;5.38;;;;;;;4.52;75.65;98400.13;4886818;29;20060;-92
2021/12/04 12:17:41;;;;;;;9.13;5.60;;;;;;;4.52;76.07;98395.75;4874365;29;20059;-91
2021/12/04 12:44:50;;;;;;;;;;;;;;;;;;;;;
2021/12/04 12:47:31;;;;;;;7.57;4.93;;;;;;;4.65;74.43;98361.97;4873349;29;20512;-92
2021/12/04 12:51:04;;;;;;;7.32;4.60;;;;;;;4.46;75.34;98346.91;4855184;29;20033;-93
2021/12/04 13:12:25;;;;;;;;;;;;;;;;;;;;;
2021/12/04 13:14:56;;;;;;;10.02;5.32;;;;;;;3.98;77.65;98327.97;4901740;29;20675;-85
2021/12/04 13:17:55;;;;;;;7.80;4.97;;;;;;;3.97;77.78;98326.28;4887266;29;20024;-93
2021/12/04 13:20:23;;;;;;;7.70;4.82;;;;;;;3.93;77.22;98322.25;4882397;29;20087;-95
2021/12/04 13:23:11;;;;;;;9.13;5.38;;;;;;;3.87;77.35;98328.72;4892466;29;20051;-93
2021/12/04 13:26:32;;;;;;;9.05;5.10;;;;;;;3.80;77.01;98314.53;4949645;29;20115;-93
2021/12/04 13:35:22;;;;;;;10.50;6.30;;;;;;;3.72;77.86;98322.03;5024854;28;20104;-69
2021/12/04 13:37:58;;;;;;;10.88;5.75;;;;;;;3.71;78.26;98318.63;5023305;28;20087;-69
2021/12/04 13:40:25;;;;;;;15.98;7.03;;;;;;;3.70;78.90;98323.88;5016601;28;20046;-69
2021/12/04 13:42:50;;;;;;;10.05;6.03;;;;;;;3.67;78.51;98314.59;5026803;28;20121;-70
2021/12/04 13:45:18;;;;;;;11.63;5.65;;;;;;;3.63;79.08;98311.38;5017180;28;20108;-70
2021/12/04 13:47:51;;;;;;;10.02;5.95;;;;;;;3.65;78.99;98308.66;5035914;22;20058;-72
2021/12/04 13:50:44;;;;;;;10.95;5.82;;;;;;;3.63;78.93;98303.59;5026675;28;20524;-73
2021/12/04 13:53:18;;;;;;;14.05;7.25;;;;;;;3.60;79.30;98296.06;5027214;28;20037;-70
2021/12/04 13:55:50;;;;;;;13.27;6.40;;;;;;;3.57;79.68;98298.84;5027812;28;20499;-72
2021/12/04 13:58:16;;;;;;;12.55;6.50;;;;;;;3.54;79.55;98303.41;5008418;28;20061;-71
2021/12/04 14:00:42;;;;;;;19.60;7.15;;;;;;;3.46;79.57;98297.94;4996323;28;20504;-71
2021/12/04 14:03:07;;;;;;;13.27;7.50;;;;;;;3.43;79.71;98296.41;5007063;28;20457;-72
2021/12/04 14:05:33;;;;;;;14.48;6.32;;;;;;;3.41;79.86;98293.06;5003840;28;20038;-71
2021/12/04 14:08:01;;;;;;;12.45;6.20;;;;;;;3.35;79.79;98291.75;5008433;28;20034;-73
2021/12/04 14:10:33;;;;;;;15.48;6.20;;;;;;;3.37;80.03;98297.66;5007617;28;20036;-72
2021/12/04 14:13:02;;;;;;;13.73;6.25;;;;;;;3.36;79.75;98295.97;5006527;28;20034;-71
2021/12/04 14:15:27;;;;;;;;;;;;;;;3.31;80.05;98297.25;5009518;28;20022;-70
2021/12/04 14:18:02;;;;;;;12.32;6.32;;;;;;;3.27;80.47;98291.47;5009602;28;19921;-70
2021/12/04 14:20:29;;;;;;;10.35;6.00;;;;;;;3.23;80.32;98291.78;5008976;28;20398;-70
2021/12/04 14:22:57;;;;;;;9.68;5.47;;;;;;;3.21;80.74;98291.88;5008787;28;20045;-71
2021/12/04 14:25:24;;;;;;;10.52;6.20;;;;;;;3.20;81.13;98292.00;5008734;28;20091;-72
2021/12/04 14:27:50;;;;;;;11.68;5.95;;;;;;;3.21;80.59;98285.88;5007974;28;20037;-72
2021/12/04 14:30:21;;;;;;;13.80;5.55;;;;;;;3.22;80.85;98279.75;5007003;28;20074;-71
2021/12/04 14:32:54;;;;;;;10.57;6.50;;;;;;;3.18;81.31;98281.72;5010368;28;20629;-71
2021/12/04 14:35:22;;;;;;;12.50;5.50;;;;;;;3.23;80.86;98281.44;5012497;28;20253;-71
2021/12/04 14:37:55;;;;;;;12.98;6.45;;;;;;;3.23;81.19;98277.06;5012330;28;20131;-71
2021/12/04 14:40:32;;;;;;;9.52;4.90;;;;;;;3.21;81.07;98275.50;5012273;28;20041;-72
2021/12/04 14:42:58;;;;;;;8.50;5.15;;;;;;;3.23;80.88;98258.13;5004903;28;20046;-72
2021/12/04 14:45:28;;;;;;;9.95;5.07;;;;;;;3.26;81.00;98256.13;5003543;28;20096;-70
2021/12/04 14:48:00;;;;;;;10.75;5.47;;;;;;;3.27;80.98;98259.56;5002518;28;20424;-69
2021/12/04 14:50:26;;;;;;;10.23;3.92;;;;;;;3.28;80.73;98256.84;5003365;28;20034;-72
2021/12/04 14:53:03;;;;;;;10.35;5.43;;;;;;;3.31;81.02;98259.22;5005361;28;20041;-71
2021/12/04 14:55:35;;;;;;;15.20;4.68;;;;;;;3.31;80.85;98250.63;5004694;28;20041;-70
2021/12/04 14:58:04;;;;;;;9.60;4.68;;;;;;;3.32;80.71;98265.25;5001183;28;20116;-73
2021/12/04 15:00:34;;;;;;;10.25;4.95;;;;;;;3.36;80.37;98262.31;5004751;28;20084;-71
2021/12/04 15:03:06;;;;;;;7.53;4.80;;;;;;;3.36;80.93;98251.13;5002879;28;20572;-72
2021/12/04 15:05:37;;;;;;;9.27;4.50;;;;;;;3.38;80.72;98246.69;5001223;28;20053;-71
2021/12/04 15:08:16;;;;;;;7.88;4.65;;;;;;;3.36;80.26;98251.97;5003135;28;20079;-70
2021/12/04 15:10:43;;;;;;;8.23;4.55;;;;;;;3.36;80.46;98246.78;5005331;28;20042;-71
2021/12/04 15:13:19;;;;;;;8.80;4.78;;;;;;;3.38;80.58;98259.63;5003163;28;20053;-72
2021/12/04 15:15:45;;;;;;;6.47;3.90;;;;;;;3.38;80.48;98268.22;5004793;28;20042;-71
2021/12/04 15:18:13;;;;;;;9.05;4.50;;;;;;;3.38;80.37;98272.59;5004316;28;20053;-72
2021/12/04 15:20:46;;;;;;;9.57;5.20;;;;;;;3.33;80.75;98270.28;5004893;28;20400;-73
2021/12/04 15:23:19;;;;;;;11.32;5.40;;;;;;;3.36;80.64;98270.09;5001319;28;20070;-72
2021/12/04 15:25:45;;;;;;;9.48;5.20;;;;;;;3.35;80.98;98270.22;5003476;28;20064;-70
2021/12/04 15:28:19;;;;;;;12.80;4.63;;;;;;;3.32;80.71;98273.00;5002086;28;20049;-70
2021/12/04 15:30:51;;;;;;;11.52;6.20;;;;;;;3.35;80.58;98268.44;5001704;28;20038;-71
2021/12/04 15:33:42;;;;;;;11.30;5.13;;;;;;;3.34;80.66;98263.38;5004543;28;20095;-71
2021/12/04 15:36:19;;;;;;;10.73;6.13;;;;;;;3.29;80.30;98258.50;5003802;28;20632;-71
2021/12/04 15:38:50;;;;;;;11.13;5.90;;;;;;;3.27;81.30;98262.16;5003487;28;20584;-70
2021/12/04 15:42:01;;;;;;;11.48;6.00;;;;;;;3.26;81.21;98258.72;5003654;28;20033;-69
2021/12/04 15:47:17;;;;;;;9.30;4.47;;;;;;;3.23;81.95;98250.34;5002690;28;20621;-69
2021/12/04 15:50:10;;;;;;;9.88;4.18;;;;;;;3.22;81.05;98253.84;4998396;28;20548;-73
2021/12/04 15:55:14;;;;;;;9.50;5.30;;;;;;;3.22;81.10;98259.03;5003659;28;20508;-70
2021/12/04 15:57:40;;;;;;;9.13;4.25;;;;;;;3.22;81.18;98269.41;5007573;28;20057;-71
2021/12/04 16:00:11;;;;;;;12.15;5.00;;;;;;;3.22;80.91;98259.03;4999199;28;20113;-69
2021/12/04 16:02:43;;;;;;;7.82;4.60;;;;;;;3.22;80.86;98257.25;5006950;28;20470;-71
2021/12/04 16:05:18;;;;;;;7.80;4.13;;;;;;;3.22;81.02;98269.41;5002372;28;20050;-70
2021/12/04 16:07:45;;;;;;;8.35;4.30;;;;;;;3.23;80.81;98263.31;5010227;28;20029;-72
2021/12/04 16:10:13;;;;;;;7.75;4.45;;;;;;;3.22;80.75;98262.44;5014251;28;20037;-71
2021/12/04 16:12:39;;;;;;;12.18;4.97;;;;;;;3.22;81.03;98270.22;5011378;28;20033;-71
2021/12/04 16:15:08;;;;;;;8.85;4.80;;;;;;;3.26;80.81;98269.06;5011873;28;20022;-71
2021/12/04 16:17:33;;;;;;;9.30;4.80;;;;;;;3.25;81.15;98264.00;5010586;28;20080;-71
2021/12/04 16:20:07;;;;;;;8.35;4.50;;;;;;;3.26;81.23;98263.06;5009072;28;20034;-70
2021/12/04 16:22:39;;;;;;;6.75;4.22;;;;;;;3.22;81.28;98259.84;5004276;28;20084;-67
2021/12/04 16:25:09;;;;;;;7.38;4.22;;;;;;;3.24;81.52;98257.19;5003712;28;20503;-70
2021/12/04 16:27:46;;;;;;;6.38;4.07;;;;;;;3.21;81.29;98252.22;5010300;28;20462;-68
2021/12/04 16:30:26;;;;;;;9.60;5.20;;;;;;;3.23;80.90;98246.00;5010420;28;20026;-70
2021/12/04 16:33:10;;;;;;;8.10;4.40;;;;;;;3.21;81.17;98247.03;5010905;28;20470;-71
2021/12/04 16:38:03;;;;;;;9.38;4.75;;;;;;;3.19;81.14;98246.28;5003698;28;20057;-71
2021/12/04 16:40:33;;;;;;;9.32;5.13;;;;;;;3.15;81.44;98251.72;5010826;28;20041;-69
2021/12/04 16:43:28;;;;;;;10.75;5.57;;;;;;;3.12;81.52;98238.97;5008888;28;20097;-68
2021/12/04 16:45:55;;;;;;;9.40;5.07;;;;;;;3.09;81.90;98228.81;5009057;28;20546;-69
2021/12/04 16:48:23;;;;;;;10.93;4.63;;;;;;;3.11;81.91;98226.94;5008772;28;20025;-70
2021/12/04 16:59:07;;;;;;;9.68;4.82;;;;;;;3.13;82.32;98225.09;5003267;28;20121;-69